| time (UTC) | temp F | wind direction | speed MPH | gust MPH | rain 1hr in | rain 24hr in | rain mn in | humidity % | barometer mb |
| 20260906182556 | 66 | 202 | 2.0 | 7.0 | 0.05 | 0.21 | 0.21 | 94 | 1019.3 |
| 20260906181619 | 66 | 170 | 2.0 | 10.0 | 0.15 | 0.21 | 0.21 | 94 | 1019.4 |
| 20260906180630 | 66 | 211 | 2.0 | 10.0 | 0.00 | 0.19 | 0.19 | 94 | 1019.4 |
| 20260906175614 | 66 | 169 | 0.0 | 4.0 | 0.00 | 0.18 | 0.18 | 94 | 1019.6 |
| 20260906174620 | 66 | 210 | 0.0 | 6.0 | 0.00 | 0.18 | 0.18 | 93 | 1019.9 |
| 20260906173613 | 66 | 185 | 0.0 | 6.0 | 0.00 | 0.18 | 0.18 | 93 | 1019.4 |
| 20260906172613 | 65 | 193 | 1.0 | 16.0 | 0.00 | 0.18 | 0.18 | 93 | 1019.6 |
| 20260906171632 | 65 | 193 | 3.0 | 16.0 | 0.04 | 0.18 | 0.18 | 92 | 1018.7 |
| 20260906170608 | 66 | 152 | 1.0 | 11.0 | 0.04 | 0.16 | 0.17 | 92 | 1018.8 |
| 20260906165633 | 66 | 154 | 0.0 | 9.0 | 0.09 | 0.16 | 0.17 | 92 | 1018.4 |
| 20260906164625 | 66 | 164 | 2.0 | 9.0 | 0.13 | 0.14 | 0.16 | 91 | 1018.4 |
| 20260906163643 | 66 | 220 | 0.0 | 8.0 | 0.38 | 0.13 | 0.13 | 91 | 1018.4 |
| 20260906161609 | 67 | 92 | 2.0 | 13.0 | 0.00 | 0.00 | 0.00 | 88 | 1018.4 |
| 20260906160535 | 69 | 144 | 3.0 | 14.0 | 0.00 | 0.00 | 0.00 | 85 | 1018.1 |
| 20260906155550 | 72 | 116 | 2.0 | 14.0 | 0.00 | 0.00 | 0.00 | 90 | 1017.7 |
| 20260906154539 | 73 | 204 | 2.0 | 13.0 | 0.00 | 0.00 | 0.00 | 92 | 1017.9 |
| 20260906153517 | 73 | 145 | 3.0 | 13.0 | 0.00 | 0.00 | 0.00 | 93 | 1018.0 |
| 20260906152448 | 72 | 161 | 2.0 | 8.0 | 0.00 | 0.00 | 0.00 | 94 | 1018.1 |
| 20260906151450 | 72 | 80 | 2.0 | 11.0 | 0.00 | 0.00 | 0.00 | 93 | 1018.1 |
| 20260906150505 | 72 | 103 | 1.0 | 11.0 | 0.00 | 0.00 | 0.00 | 93 | 1018.0 |
| 20260906145510 | 72 | 103 | 1.0 | 7.0 | 0.00 | 0.01 | 0.00 | 93 | 1017.7 |
| 20260906143515 | 72 | 102 | 1.0 | 6.0 | 0.00 | 0.02 | 0.00 | 93 | 1017.7 |
| 20260906142510 | 72 | 134 | 1.0 | 8.0 | 0.00 | 0.02 | 0.00 | 93 | 1017.9 |
| 20260906141452 | 72 | 135 | 1.0 | 8.0 | 0.00 | 0.02 | 0.00 | 93 | 1017.9 |
| 20260906140454 | 72 | 96 | 1.0 | 8.0 | 0.00 | 0.02 | 0.00 | 93 | 1017.8 |
| 20260906135450 | 72 | 166 | 1.0 | 5.0 | 0.00 | 0.02 | 0.00 | 93 | 1017.7 |
| 20260906134424 | 72 | 102 | 1.0 | 7.0 | 0.00 | 0.02 | 0.00 | 93 | 1017.8 |
| 20260906133442 | 72 | 100 | 1.0 | 10.0 | 0.00 | 0.02 | 0.00 | 93 | 1017.7 |
| 20260906132419 | 72 | 127 | 1.0 | 10.0 | 0.00 | 0.03 | 0.00 | 93 | 1017.3 |
| 20260906131347 | 72 | 120 | 1.0 | 5.0 | 0.00 | 0.03 | 0.00 | 93 | 1017.4 |
| 20260906130328 | 72 | 97 | 0.0 | 7.0 | 0.00 | 0.03 | 0.00 | 93 | 1017.3 |
| 20260906125317 | 72 | 115 | 1.0 | 7.0 | 0.00 | 0.03 | 0.00 | 93 | 1017.4 |
| 20260906124324 | 72 | 133 | 1.0 | 7.0 | 0.00 | 0.03 | 0.00 | 93 | 1017.4 |
| 20260906122334 | 72 | 99 | 1.0 | 8.0 | 0.00 | 0.03 | 0.00 | 93 | 1017.3 |
| 20260906121305 | 72 | 105 | 1.0 | 5.0 | 0.00 | 0.03 | 0.00 | 93 | 1017.2 |
| 20260906120315 | 72 | 152 | 1.0 | 5.0 | 0.00 | 0.03 | 0.00 | 93 | 1017.1 |
| 20260906114252 | 72 | 137 | 1.0 | 8.0 | 0.00 | 0.03 | 0.00 | 93 | 1016.7 |
| 20260906113239 | 72 | 148 | 0.0 | 7.0 | 0.00 | 0.03 | 0.00 | 93 | 1016.6 |
| 20260906112247 | 72 | 62 | 1.0 | 7.0 | 0.00 | 0.03 | 0.00 | 94 | 1016.6 |
| 20260906111219 | 72 | 73 | 1.0 | 7.0 | 0.00 | 0.03 | 0.00 | 94 | 1016.6 |
| 20260906110236 | 72 | 102 | 1.0 | 7.0 | 0.00 | 0.03 | 0.00 | 94 | 1016.6 |
| 20260906105256 | 72 | 118 | 1.0 | 7.0 | 0.00 | 0.03 | 0.00 | 94 | 1016.6 |
| 20260906104236 | 72 | 86 | 1.0 | 8.0 | 0.00 | 0.03 | 0.00 | 94 | 1016.7 |
| 20260906103210 | 72 | 153 | 1.0 | 8.0 | 0.00 | 0.03 | 0.00 | 94 | 1016.7 |
| 20260906102234 | 72 | 139 | 1.0 | 8.0 | 0.00 | 0.03 | 0.00 | 94 | 1016.7 |
| 20260906094208 | 72 | 193 | 0.0 | 5.0 | 0.00 | 0.03 | 0.00 | 94 | 1016.7 |
| 20260906093230 | 72 | 98 | 0.0 | 6.0 | 0.00 | 0.03 | 0.00 | 94 | 1016.9 |
| 20260906092219 | 72 | 96 | 1.0 | 6.0 | 0.00 | 0.03 | 0.00 | 94 | 1016.8 |
| 20260906091213 | 72 | 137 | 1.0 | 6.0 | 0.00 | 0.03 | 0.00 | 93 | 1016.8 |
| 20260906090215 | 72 | 108 | 1.0 | 8.0 | 0.00 | 0.03 | 0.00 | 93 | 1016.5 |
| 20260906085225 | 72 | 62 | 1.0 | 8.0 | 0.00 | 0.03 | 0.00 | 93 | 1016.2 |
| 20260906083216 | 72 | 104 | 1.0 | 8.0 | 0.00 | 0.03 | 0.00 | 93 | 1016.2 |
| 20260906082146 | 72 | 106 | 1.0 | 9.0 | 0.00 | 0.03 | 0.00 | 93 | 1016.1 |
| 20260906081117 | 72 | 110 | 1.0 | 9.0 | 0.00 | 0.03 | 0.00 | 93 | 1016.2 |
| 20260906080055 | 72 | 95 | 1.0 | 8.0 | 0.00 | 0.03 | 0.00 | 93 | 1016.2 |
| 20260906075031 | 72 | 92 | 2.0 | 8.0 | 0.00 | 0.03 | 0.00 | 93 | 1016.3 |
| 20260906072940 | 73 | 149 | 2.0 | 9.0 | 0.00 | 0.03 | 0.00 | 93 | 1016.1 |
| 20260906071915 | 73 | 115 | 1.0 | 8.0 | 0.00 | 0.03 | 0.00 | 93 | 1016.0 |
| 20260906070843 | 73 | 125 | 1.0 | 10.0 | 0.00 | 0.03 | 0.00 | 93 | 1016.3 |
| 20260906064840 | 73 | 130 | 1.0 | 10.0 | 0.00 | 0.03 | 0.00 | 93 | 1016.5 |
| 20260906062830 | 73 | 92 | 1.0 | 9.0 | 0.00 | 0.03 | 0.00 | 92 | 1016.6 |
| 20260906061844 | 73 | 83 | 2.0 | 9.0 | 0.00 | 0.03 | 0.00 | 92 | 1016.5 |
| 20260906055900 | 74 | 97 | 2.0 | 9.0 | 0.00 | 0.03 | 0.00 | 92 | 1016.3 |
| 20260906054835 | 74 | 89 | 2.0 | 9.0 | 0.00 | 0.03 | 0.00 | 92 | 1016.3 |
| 20260906053852 | 74 | 145 | 1.0 | 8.0 | 0.00 | 0.03 | 0.00 | 92 | 1016.2 |
| 20260906051758 | 75 | 115 | 2.0 | 8.0 | 0.00 | 0.03 | 0.00 | 92 | 1016.2 |
| 20260906050728 | 75 | 116 | 2.0 | 8.0 | 0.00 | 0.03 | 0.00 | 92 | 1016.2 |
| 20260906045723 | 75 | 85 | 2.0 | 7.0 | 0.00 | 0.03 | 0.03 | 92 | 1016.1 |
| 20260906044729 | 76 | 105 | 1.0 | 7.0 | 0.00 | 0.03 | 0.03 | 91 | 1016.1 |
| 20260906043748 | 76 | 99 | 1.0 | 6.0 | 0.00 | 0.03 | 0.03 | 91 | 1016.0 |
| 20260906041726 | 76 | 113 | 1.0 | 5.0 | 0.00 | 0.03 | 0.03 | 91 | 1016.0 |
| 20260906040656 | 76 | 107 | 1.0 | 8.0 | 0.00 | 0.03 | 0.03 | 91 | 1016.0 |
| 20260906035642 | 76 | 109 | 1.0 | 8.0 | 0.00 | 0.03 | 0.03 | 90 | 1016.0 |
| 20260906033642 | 76 | 110 | 1.0 | 7.0 | 0.00 | 0.03 | 0.03 | 90 | 1015.7 |
| 20260906032633 | 77 | 113 | 1.0 | 6.0 | 0.00 | 0.03 | 0.03 | 90 | 1015.8 |
| 20260906031648 | 77 | 114 | 1.0 | 6.0 | 0.00 | 0.03 | 0.03 | 90 | 1015.9 |
| 20260906030711 | 77 | 93 | 1.0 | 6.0 | 0.00 | 0.03 | 0.03 | 90 | 1015.8 |
| 20260906025732 | 77 | 117 | 1.0 | 6.0 | 0.00 | 0.03 | 0.03 | 90 | 1015.9 |
| 20260906024734 | 77 | 101 | 1.0 | 6.0 | 0.00 | 0.03 | 0.03 | 90 | 1016.0 |
| 20260906023719 | 76 | 88 | 1.0 | 6.0 | 0.00 | 0.03 | 0.03 | 89 | 1016.1 |
| 20260906022722 | 76 | 91 | 0.0 | 3.0 | 0.00 | 0.03 | 0.03 | 89 | 1016.3 |
| 20260906021700 | 76 | 111 | 0.0 | 3.0 | 0.00 | 0.03 | 0.03 | 89 | 1016.2 |
| 20260906020649 | 76 | 116 | 0.0 | 3.0 | 0.00 | 0.03 | 0.03 | 88 | 1016.3 |
| 20260906015650 | 76 | 94 | 0.0 | 2.0 | 0.00 | 0.03 | 0.03 | 88 | 1016.0 |
| 20260906014619 | 76 | 81 | 0.0 | 1.0 | 0.00 | 0.03 | 0.03 | 88 | 1016.2 |
| 20260906013612 | 76 | 81 | 0.0 | 2.0 | 0.00 | 0.03 | 0.03 | 87 | 1016.0 |
| 20260906012638 | 77 | 82 | 0.0 | 2.0 | 0.00 | 0.03 | 0.03 | 87 | 1015.9 |
| 20260906011606 | 77 | 84 | 0.0 | 2.0 | 0.00 | 0.03 | 0.03 | 86 | 1015.9 |
| 20260906010607 | 77 | 115 | 0.0 | 2.0 | 0.00 | 0.03 | 0.03 | 85 | 1015.8 |
| 20260906005616 | 78 | 93 | 0.0 | 2.0 | 0.00 | 0.03 | 0.03 | 84 | 1015.5 |
| 20260906004548 | 78 | 108 | 0.0 | 0.0 | 0.00 | 0.03 | 0.03 | 83 | 1015.3 |
| 20260906003543 | 79 | 108 | 0.0 | 0.0 | 0.00 | 0.03 | 0.03 | 82 | 1015.5 |
| 20260906002559 | 79 | 108 | 0.0 | 0.0 | 0.00 | 0.03 | 0.03 | 81 | 1015.4 |
| 20260906001547 | 80 | 108 | 0.0 | 3.0 | 0.00 | 0.03 | 0.03 | 81 | 1015.5 |
| 20260906000518 | 80 | 66 | 0.0 | 0.0 | 0.00 | 0.03 | 0.03 | 80 | 1015.4 |
| 20260905235519 | 80 | 93 | 1.0 | 9.0 | 0.00 | 0.03 | 0.03 | 80 | 1015.2 |
| 20260905234457 | 80 | 106 | 1.0 | 9.0 | 0.00 | 0.03 | 0.03 | 79 | 1015.4 |
| 20260905233428 | 81 | 110 | 1.0 | 9.0 | 0.00 | 0.03 | 0.03 | 78 | 1015.5 |
| 20260905231402 | 81 | 116 | 1.0 | 7.0 | 0.00 | 0.03 | 0.03 | 77 | 1015.5 |
| 20260905230352 | 81 | 93 | 1.0 | 5.0 | 0.00 | 0.03 | 0.03 | 77 | 1015.5 |
| 20260905225329 | 81 | 87 | 0.0 | 6.0 | 0.00 | 0.03 | 0.03 | 78 | 1015.3 |
| 20260905224302 | 81 | 88 | 0.0 | 10.0 | 0.00 | 0.03 | 0.03 | 78 | 1015.2 |
| 20260905223326 | 81 | 101 | 1.0 | 10.0 | 0.00 | 0.03 | 0.03 | 78 | 1015.2 |
| 20260905222257 | 81 | 101 | 2.0 | 9.0 | 0.00 | 0.03 | 0.03 | 77 | 1014.9 |
| 20260905221243 | 81 | 137 | 1.0 | 6.0 | 0.00 | 0.03 | 0.03 | 77 | 1014.8 |
| 20260905220221 | 81 | 175 | 1.0 | 7.0 | 0.00 | 0.03 | 0.03 | 75 | 1014.8 |
| 20260905215153 | 81 | 91 | 1.0 | 8.0 | 0.00 | 0.03 | 0.03 | 75 | 1014.7 |
| 20260905214134 | 81 | 23 | 3.0 | 9.0 | 0.00 | 0.03 | 0.03 | 74 | 1014.6 |
| 20260905213129 | 82 | 104 | 2.0 | 12.0 | 0.00 | 0.03 | 0.03 | 74 | 1014.5 |
| 20260905212124 | 81 | 69 | 2.0 | 13.0 | 0.00 | 0.03 | 0.03 | 75 | 1014.4 |
| 20260905211126 | 81 | 109 | 2.0 | 13.0 | 0.00 | 0.03 | 0.03 | 75 | 1014.6 |
| 20260905210140 | 80 | 64 | 2.0 | 10.0 | 0.00 | 0.03 | 0.03 | 76 | 1014.7 |
| 20260905205127 | 80 | 108 | 2.0 | 9.0 | 0.00 | 0.03 | 0.03 | 75 | 1014.5 |
| 20260905204112 | 81 | 83 | 2.0 | 11.0 | 0.00 | 0.03 | 0.03 | 76 | 1014.4 |
| 20260905203134 | 81 | 107 | 2.0 | 11.0 | 0.00 | 0.03 | 0.03 | 76 | 1014.1 |
| 20260905202125 | 80 | 82 | 3.0 | 12.0 | 0.00 | 0.03 | 0.03 | 76 | 1014.3 |
| 20260905201116 | 80 | 116 | 4.0 | 12.0 | 0.00 | 0.03 | 0.03 | 76 | 1014.3 |
| 20260905200141 | 80 | 60 | 3.0 | 11.0 | 0.00 | 0.03 | 0.03 | 76 | 1014.4 |
| 20260905195111 | 80 | 98 | 2.0 | 9.0 | 0.00 | 0.03 | 0.03 | 76 | 1014.5 |
| 20260905194127 | 80 | 108 | 2.0 | 11.0 | 0.00 | 0.03 | 0.03 | 76 | 1014.5 |
| 20260905192111 | 82 | 72 | 2.0 | 12.0 | 0.00 | 0.03 | 0.03 | 74 | 1014.4 |
| 20260905191046 | 84 | 37 | 2.0 | 9.0 | 0.00 | 0.03 | 0.03 | 72 | 1014.7 |
| 20260905190051 | 84 | 99 | 1.0 | 9.0 | 0.00 | 0.03 | 0.03 | 64 | 1014.9 |
| 20260905185028 | 85 | 88 | 1.0 | 5.0 | 0.00 | 0.03 | 0.03 | 63 | 1014.8 |
| 20260905183956 | 85 | 97 | 0.0 | 2.0 | 0.00 | 0.03 | 0.03 | 63 | 1014.8 |
| 20260905182947 | 86 | 65 | 2.0 | 8.0 | 0.00 | 0.03 | 0.03 | 64 | 1014.6 |